createdAt,value
2018-03-23T00:00:05.563Z,983.85
2018-03-23T00:01:05.715Z,983.88
2018-03-23T00:02:05.857Z,983.88
2018-03-23T00:03:06.001Z,983.84
2018-03-23T00:04:06.147Z,983.88
2018-03-23T00:05:06.293Z,983.83
2018-03-23T00:06:06.442Z,983.82
2018-03-23T00:07:06.591Z,983.80
2018-03-23T00:08:06.736Z,983.76
2018-03-23T00:09:06.884Z,983.72
2018-03-23T00:10:07.041Z,983.69
2018-03-23T00:11:07.187Z,983.69
2018-03-23T00:12:07.336Z,983.69
2018-03-23T00:13:07.481Z,983.64
2018-03-23T00:14:07.629Z,983.64
2018-03-23T00:15:07.771Z,983.59
2018-03-23T00:16:07.919Z,983.58
2018-03-23T00:17:08.064Z,983.59
2018-03-23T00:18:08.211Z,983.58
2018-03-23T00:19:08.398Z,983.62
2018-03-23T00:20:08.505Z,983.63
2018-03-23T00:21:08.656Z,983.62
2018-03-23T00:22:08.798Z,983.62
2018-03-23T00:23:08.946Z,983.60
2018-03-23T00:24:09.093Z,983.65
2018-03-23T00:25:09.240Z,983.63
2018-03-23T00:26:09.385Z,983.64
2018-03-23T00:27:09.533Z,983.63
2018-03-23T00:28:09.679Z,983.57
2018-03-23T00:29:09.829Z,983.60
2018-03-23T00:30:10.003Z,983.60
2018-03-23T00:31:10.130Z,983.62
2018-03-23T00:32:10.278Z,983.59
2018-03-23T00:33:10.424Z,983.61
2018-03-23T00:34:10.572Z,983.62
2018-03-23T00:35:10.721Z,983.56
2018-03-23T00:36:10.869Z,983.58
2018-03-23T00:37:11.014Z,983.55
2018-03-23T00:38:11.161Z,983.57
2018-03-23T00:39:11.313Z,983.56
2018-03-23T00:40:11.454Z,983.57
2018-03-23T00:41:11.601Z,983.56
2018-03-23T00:42:11.751Z,983.55
2018-03-23T00:43:11.896Z,983.53
2018-03-23T00:44:12.044Z,983.51
2018-03-23T00:45:12.188Z,983.48
2018-03-23T00:46:12.334Z,983.48
2018-03-23T00:47:12.481Z,983.48
2018-03-23T00:48:12.628Z,983.44
2018-03-23T00:49:12.777Z,983.45
2018-03-23T00:50:12.924Z,983.46
2018-03-23T00:51:13.071Z,983.43
2018-03-23T00:52:13.216Z,983.42
2018-03-23T00:53:13.364Z,983.42
2018-03-23T00:54:13.509Z,983.41
2018-03-23T00:55:13.659Z,983.40
2018-03-23T00:56:13.805Z,983.37
2018-03-23T00:57:13.953Z,983.34
2018-03-23T00:58:14.100Z,983.33
2018-03-23T00:59:14.248Z,983.32
2018-03-23T01:00:14.396Z,983.36
2018-03-23T01:01:14.545Z,983.38
2018-03-23T01:02:14.692Z,983.41
2018-03-23T01:03:14.842Z,983.41
2018-03-23T01:04:14.986Z,983.44
2018-03-23T01:05:15.132Z,983.43
2018-03-23T01:06:15.282Z,983.42
2018-03-23T01:07:15.428Z,983.42
2018-03-23T01:08:15.573Z,983.38
2018-03-23T01:09:15.724Z,983.40
2018-03-23T01:10:15.871Z,983.38
2018-03-23T01:11:16.018Z,983.36
2018-03-23T01:12:16.171Z,983.38
2018-03-23T01:13:16.317Z,983.37
2018-03-23T01:14:16.459Z,983.40
2018-03-23T01:15:16.607Z,983.38
2018-03-23T01:16:16.753Z,983.36
2018-03-23T01:17:16.899Z,983.36
2018-03-23T01:18:17.057Z,983.38
2018-03-23T01:19:17.223Z,983.34
2018-03-23T01:20:17.370Z,983.32
2018-03-23T01:21:17.520Z,983.27
2018-03-23T01:22:17.669Z,983.31
2018-03-23T01:23:17.814Z,983.25
2018-03-23T01:24:17.963Z,983.28
2018-03-23T01:25:18.110Z,983.26
2018-03-23T01:26:18.259Z,983.24
2018-03-23T01:27:18.403Z,983.22
2018-03-23T01:28:18.548Z,983.21
2018-03-23T01:29:18.695Z,983.20
2018-03-23T01:30:18.843Z,983.16
2018-03-23T01:31:18.988Z,983.15
2018-03-23T01:32:19.136Z,983.13
2018-03-23T01:33:19.286Z,983.13
2018-03-23T01:34:19.431Z,983.13
2018-03-23T01:35:19.582Z,983.09
2018-03-23T01:36:19.727Z,983.18
2018-03-23T01:37:19.874Z,983.18
2018-03-23T01:38:20.021Z,983.18
2018-03-23T01:39:20.166Z,983.15
2018-03-23T01:40:20.314Z,983.17
2018-03-23T01:41:20.462Z,983.18
2018-03-23T01:42:20.609Z,983.15
2018-03-23T01:43:20.759Z,983.11
2018-03-23T01:44:20.903Z,983.14
2018-03-23T01:45:21.051Z,983.12
2018-03-23T01:46:21.198Z,983.11
2018-03-23T01:47:21.345Z,983.09
2018-03-23T01:48:21.493Z,983.09
2018-03-23T01:49:21.640Z,983.10
2018-03-23T01:50:21.787Z,983.10
2018-03-23T01:51:21.961Z,983.11
2018-03-23T01:52:22.083Z,983.08
2018-03-23T01:53:22.228Z,983.08
2018-03-23T01:54:22.373Z,983.13
2018-03-23T01:55:22.523Z,983.11
2018-03-23T01:56:22.674Z,983.10
2018-03-23T01:57:22.816Z,983.12
2018-03-23T01:58:22.962Z,983.08
2018-03-23T01:59:23.107Z,983.07
2018-03-23T02:00:23.255Z,983.09
2018-03-23T02:01:23.402Z,983.05
2018-03-23T02:02:23.549Z,983.02
2018-03-23T02:03:23.697Z,983.06
2018-03-23T02:04:23.844Z,983.04
2018-03-23T02:05:23.990Z,983.07
2018-03-23T02:06:24.140Z,983.09
2018-03-23T02:07:24.286Z,983.07
2018-03-23T02:08:24.431Z,983.04
2018-03-23T02:09:24.577Z,983.05
2018-03-23T02:10:24.736Z,983.05
2018-03-23T02:11:24.873Z,983.04
2018-03-23T02:12:25.020Z,983.02
2018-03-23T02:13:25.167Z,983.04
2018-03-23T02:14:25.312Z,983.03
2018-03-23T02:15:25.458Z,983.01
2018-03-23T02:16:25.605Z,982.96
2018-03-23T02:17:25.753Z,982.98
2018-03-23T02:18:25.901Z,982.98
2018-03-23T02:19:26.046Z,982.98
2018-03-23T02:20:26.195Z,982.93
2018-03-23T02:21:26.337Z,982.96
2018-03-23T02:22:26.484Z,982.99
2018-03-23T02:23:26.634Z,982.99
2018-03-23T02:24:26.781Z,982.94
2018-03-23T02:25:26.931Z,982.94
2018-03-23T02:26:27.078Z,982.91
2018-03-23T02:27:27.224Z,982.93
2018-03-23T02:28:27.372Z,982.86
2018-03-23T02:29:27.521Z,982.80
2018-03-23T02:30:27.669Z,982.79
2018-03-23T02:31:27.811Z,982.79
2018-03-23T02:32:27.959Z,982.73
2018-03-23T02:33:28.112Z,982.74
2018-03-23T02:34:28.255Z,982.72
2018-03-23T02:35:28.410Z,982.76
2018-03-23T02:36:28.552Z,982.73
2018-03-23T02:37:28.701Z,982.70
2018-03-23T02:38:28.846Z,982.72
2018-03-23T02:39:28.997Z,982.68
2018-03-23T02:40:29.145Z,982.69
2018-03-23T02:41:29.291Z,982.67
2018-03-23T02:42:29.439Z,982.67
2018-03-23T02:43:29.642Z,982.62
2018-03-23T02:44:29.732Z,982.64
2018-03-23T02:45:29.879Z,982.68
2018-03-23T02:46:30.026Z,982.64
2018-03-23T02:47:30.177Z,982.60
2018-03-23T02:48:30.330Z,982.60
2018-03-23T02:49:30.476Z,982.61
2018-03-23T02:50:30.621Z,982.59
2018-03-23T02:51:30.775Z,982.59
2018-03-23T02:52:30.916Z,982.54
2018-03-23T02:53:31.062Z,982.50
2018-03-23T02:54:31.212Z,982.52
2018-03-23T02:55:31.358Z,982.52
2018-03-23T02:56:31.511Z,982.53
2018-03-23T02:57:31.661Z,982.47
2018-03-23T02:58:31.804Z,982.54
2018-03-23T02:59:31.950Z,982.51
2018-03-23T03:00:32.099Z,982.50
2018-03-23T03:01:32.247Z,982.51
2018-03-23T03:02:32.393Z,982.53
2018-03-23T03:03:32.539Z,982.55
2018-03-23T03:04:32.686Z,982.52
2018-03-23T03:05:32.837Z,982.47
2018-03-23T03:06:32.982Z,982.45
2018-03-23T03:07:33.132Z,982.48
2018-03-23T03:08:33.279Z,982.42
2018-03-23T03:09:33.426Z,982.45
2018-03-23T03:10:33.571Z,982.46
2018-03-23T03:11:33.720Z,982.42
2018-03-23T03:12:33.867Z,982.42
2018-03-23T03:13:34.011Z,982.36
2018-03-23T03:14:34.157Z,982.39
2018-03-23T03:15:34.307Z,982.36
2018-03-23T03:16:34.453Z,982.35
2018-03-23T03:17:34.602Z,982.33
2018-03-23T03:18:34.749Z,982.31
2018-03-23T03:19:34.896Z,982.28
2018-03-23T03:20:35.041Z,982.34
2018-03-23T03:21:35.187Z,982.32
2018-03-23T03:22:35.334Z,982.31
2018-03-23T03:23:35.483Z,982.33
2018-03-23T03:24:35.634Z,982.32
2018-03-23T03:25:35.781Z,982.32
2018-03-23T03:26:35.929Z,982.32
2018-03-23T03:27:36.075Z,982.35
2018-03-23T03:28:36.222Z,982.33
2018-03-23T03:29:36.367Z,982.38
2018-03-23T03:30:36.513Z,982.37
2018-03-23T03:31:36.665Z,982.39
2018-03-23T03:32:36.817Z,982.35
2018-03-23T03:33:36.960Z,982.38
2018-03-23T03:34:37.108Z,982.37
2018-03-23T03:35:37.258Z,982.38
2018-03-23T03:36:37.403Z,982.35
2018-03-23T03:37:37.553Z,982.29
2018-03-23T03:38:37.699Z,982.36
2018-03-23T03:39:37.845Z,982.26
2018-03-23T03:40:37.994Z,982.24
2018-03-23T03:41:38.139Z,982.28
2018-03-23T03:42:38.289Z,982.24
2018-03-23T03:43:38.440Z,982.27
2018-03-23T03:44:38.579Z,982.26
2018-03-23T03:45:38.728Z,982.28
2018-03-23T03:46:38.873Z,982.28
2018-03-23T03:47:39.024Z,982.29
2018-03-23T03:48:39.171Z,982.28
2018-03-23T03:49:39.319Z,982.29
2018-03-23T03:50:39.464Z,982.30
2018-03-23T03:51:39.613Z,982.28
2018-03-23T03:52:39.763Z,982.30
2018-03-23T03:53:39.911Z,982.30
2018-03-23T03:54:40.054Z,982.30
2018-03-23T03:55:40.205Z,982.29
2018-03-23T03:56:40.350Z,982.29
2018-03-23T03:57:40.498Z,982.27
2018-03-23T03:58:40.644Z,982.26
2018-03-23T03:59:40.790Z,982.27
2018-03-23T04:00:40.939Z,982.31
2018-03-23T04:01:41.084Z,982.29
2018-03-23T04:02:41.231Z,982.33
2018-03-23T04:03:41.378Z,982.35
2018-03-23T04:04:41.529Z,982.40
2018-03-23T04:05:41.676Z,982.39
2018-03-23T04:06:41.825Z,982.41
2018-03-23T04:07:41.970Z,982.42
2018-03-23T04:08:42.158Z,982.43
2018-03-23T04:09:42.265Z,982.34
2018-03-23T04:10:42.411Z,982.35
2018-03-23T04:11:42.557Z,982.31
2018-03-23T04:12:42.705Z,982.31
2018-03-23T04:13:42.852Z,982.28
2018-03-23T04:14:43.013Z,982.21
2018-03-23T04:15:43.145Z,982.24
2018-03-23T04:16:43.291Z,982.25
2018-03-23T04:17:43.439Z,982.28
2018-03-23T04:18:43.588Z,982.26
2018-03-23T04:19:43.757Z,982.22
2018-03-23T04:20:43.882Z,982.23
2018-03-23T04:21:44.030Z,982.20
2018-03-23T04:22:44.174Z,982.18
2018-03-23T04:23:44.321Z,982.18
2018-03-23T04:24:44.468Z,982.24
2018-03-23T04:25:44.613Z,982.20
2018-03-23T04:26:44.763Z,982.15
2018-03-23T04:27:44.909Z,982.15
2018-03-23T04:28:45.056Z,982.16
2018-03-23T04:29:45.200Z,982.15
2018-03-23T04:30:45.348Z,982.14
2018-03-23T04:31:45.494Z,982.21
2018-03-23T04:32:45.641Z,982.13
2018-03-23T04:33:45.787Z,982.10
2018-03-23T04:34:45.936Z,982.09
2018-03-23T04:35:46.084Z,982.06
2018-03-23T04:36:46.228Z,982.06
2018-03-23T04:37:46.376Z,982.04
2018-03-23T04:38:46.524Z,982.08
2018-03-23T04:39:46.714Z,982.08
2018-03-23T04:40:46.823Z,982.12
2018-03-23T04:41:46.971Z,982.08
2018-03-23T04:42:47.117Z,982.06
2018-03-23T04:43:47.263Z,982.11
2018-03-23T04:44:47.407Z,982.05
2018-03-23T04:45:47.556Z,982.08
2018-03-23T04:46:47.704Z,982.06
2018-03-23T04:47:47.850Z,982.00
2018-03-23T04:48:47.999Z,982.03
2018-03-23T04:49:48.145Z,981.99
2018-03-23T04:50:48.293Z,981.97
2018-03-23T04:51:48.441Z,981.93
2018-03-23T04:52:48.587Z,981.96
2018-03-23T04:53:48.737Z,981.94
2018-03-23T04:54:48.885Z,981.95
2018-03-23T04:55:49.032Z,981.94
2018-03-23T04:56:49.177Z,981.87
2018-03-23T04:57:49.328Z,981.90
2018-03-23T04:58:49.476Z,981.89
2018-03-23T04:59:49.622Z,981.86
2018-03-23T05:00:49.767Z,981.91
2018-03-23T05:01:49.918Z,981.88
2018-03-23T05:02:50.064Z,981.87
2018-03-23T05:03:50.208Z,981.91
2018-03-23T05:04:50.356Z,981.89
2018-03-23T05:05:50.507Z,981.87
2018-03-23T05:06:50.654Z,981.90
2018-03-23T05:07:50.804Z,981.91
2018-03-23T05:08:50.951Z,981.91
2018-03-23T05:09:51.098Z,981.88
2018-03-23T05:10:51.244Z,981.90
2018-03-23T05:11:51.390Z,981.90
2018-03-23T05:12:51.540Z,981.91
2018-03-23T05:13:51.689Z,981.90
2018-03-23T05:14:51.838Z,981.92
2018-03-23T05:15:51.984Z,981.88
2018-03-23T05:16:52.131Z,981.89
2018-03-23T05:17:52.281Z,981.92
2018-03-23T05:18:52.429Z,981.91
2018-03-23T05:19:52.573Z,981.90
2018-03-23T05:20:52.722Z,981.88
2018-03-23T05:21:52.876Z,981.88
2018-03-23T05:22:53.016Z,981.85
2018-03-23T05:23:53.165Z,981.83
2018-03-23T05:24:53.313Z,981.81
2018-03-23T05:25:53.465Z,981.86
2018-03-23T05:26:53.612Z,981.80
2018-03-23T05:27:53.762Z,981.80
2018-03-23T05:28:53.909Z,981.79
2018-03-23T05:29:54.057Z,981.82
2018-03-23T05:30:54.204Z,981.82
2018-03-23T05:31:54.351Z,981.81
2018-03-23T05:32:54.499Z,981.79
2018-03-23T05:33:54.649Z,981.80
2018-03-23T05:34:54.798Z,981.81
2018-03-23T05:35:54.941Z,981.82
2018-03-23T05:36:55.091Z,981.80
2018-03-23T05:37:55.239Z,981.81
2018-03-23T05:38:55.389Z,981.81
2018-03-23T05:39:55.534Z,981.79
2018-03-23T05:40:55.681Z,981.78
2018-03-23T05:41:55.835Z,981.77
2018-03-23T05:42:55.979Z,981.75
2018-03-23T05:43:56.129Z,981.78
2018-03-23T05:44:56.276Z,981.80
2018-03-23T05:45:56.426Z,981.76
2018-03-23T05:46:56.570Z,981.76
2018-03-23T05:47:56.734Z,981.77
2018-03-23T05:48:56.877Z,981.76
2018-03-23T05:49:57.025Z,981.77
2018-03-23T05:50:57.172Z,981.77
2018-03-23T05:51:57.319Z,981.78
2018-03-23T05:52:57.469Z,981.76
2018-03-23T05:53:57.616Z,981.77
2018-03-23T05:54:57.764Z,981.77
2018-03-23T05:55:57.911Z,981.76
2018-03-23T05:56:58.060Z,981.75
2018-03-23T05:57:58.207Z,981.80
2018-03-23T05:58:58.357Z,981.78
2018-03-23T05:59:58.503Z,981.77
2018-03-23T06:00:58.651Z,981.80
2018-03-23T06:01:58.798Z,981.83
2018-03-23T06:02:58.946Z,981.80
2018-03-23T06:03:59.092Z,981.82
2018-03-23T06:04:59.241Z,981.81
2018-03-23T06:05:59.387Z,981.81
2018-03-23T06:06:59.534Z,981.82
2018-03-23T06:07:59.687Z,981.79
2018-03-23T06:08:59.839Z,981.84
2018-03-23T06:09:59.980Z,981.83
2018-03-23T06:11:00.127Z,981.81
2018-03-23T06:12:00.275Z,981.80
2018-03-23T06:13:00.427Z,981.79
2018-03-23T06:14:00.577Z,981.82
2018-03-23T06:15:00.727Z,981.81
2018-03-23T06:16:00.871Z,981.80
2018-03-23T06:17:01.019Z,981.82
2018-03-23T06:18:01.168Z,981.80
2018-03-23T06:19:01.317Z,981.80
2018-03-23T06:20:01.465Z,981.80
2018-03-23T06:21:01.613Z,981.77
2018-03-23T06:22:01.761Z,981.78
2018-03-23T06:23:01.915Z,981.74
2018-03-23T06:24:02.056Z,981.75
2018-03-23T06:25:02.207Z,981.71
2018-03-23T06:26:02.359Z,981.75
2018-03-23T06:27:02.505Z,981.76
2018-03-23T06:28:02.683Z,981.77
2018-03-23T06:29:02.798Z,981.73
2018-03-23T06:30:02.948Z,981.72
2018-03-23T06:31:03.096Z,981.72
2018-03-23T06:32:03.243Z,981.69
2018-03-23T06:33:03.391Z,981.72
2018-03-23T06:34:03.537Z,981.72
2018-03-23T06:35:03.684Z,981.73
2018-03-23T06:36:03.834Z,981.71
2018-03-23T06:37:03.980Z,981.70
2018-03-23T06:38:04.130Z,981.71
2018-03-23T06:39:04.277Z,981.72
2018-03-23T06:40:04.426Z,981.73
2018-03-23T06:41:04.573Z,981.71
2018-03-23T06:42:04.720Z,981.73
2018-03-23T06:43:04.872Z,981.75
2018-03-23T06:44:05.018Z,981.76
2018-03-23T06:45:05.166Z,981.77
2018-03-23T06:46:05.318Z,981.72
2018-03-23T06:47:05.473Z,981.78
2018-03-23T06:48:05.613Z,981.77
2018-03-23T06:49:05.772Z,981.79
2018-03-23T06:50:05.903Z,981.80
2018-03-23T06:51:06.056Z,981.74
2018-03-23T06:52:06.195Z,981.70
2018-03-23T06:53:06.345Z,981.70
2018-03-23T06:54:06.492Z,981.69
2018-03-23T06:55:06.639Z,981.66
2018-03-23T06:56:06.788Z,981.68
2018-03-23T06:57:06.932Z,981.66
2018-03-23T06:58:07.080Z,981.62
2018-03-23T06:59:07.228Z,981.62
2018-03-23T07:00:07.375Z,981.61
2018-03-23T07:01:07.528Z,981.68
2018-03-23T07:02:07.674Z,981.67
2018-03-23T07:03:07.819Z,981.69
2018-03-23T07:04:07.969Z,981.69
2018-03-23T07:05:08.115Z,981.65
2018-03-23T07:06:08.261Z,981.68
2018-03-23T07:07:08.410Z,981.67
2018-03-23T07:08:08.557Z,981.64
2018-03-23T07:09:08.703Z,981.68
2018-03-23T07:10:08.852Z,981.67
2018-03-23T07:11:08.997Z,981.67
2018-03-23T07:12:09.149Z,981.69
2018-03-23T07:13:09.295Z,981.69
2018-03-23T07:14:09.444Z,981.67
2018-03-23T07:15:09.592Z,981.68
2018-03-23T07:16:09.741Z,981.65
2018-03-23T07:17:09.887Z,981.64
2018-03-23T07:18:10.037Z,981.66
2018-03-23T07:19:10.184Z,981.65
2018-03-23T07:20:10.332Z,981.64
2018-03-23T07:21:10.478Z,981.60
2018-03-23T07:22:10.628Z,981.62
2018-03-23T07:23:10.778Z,981.62
2018-03-23T07:24:10.926Z,981.65
2018-03-23T07:25:11.077Z,981.68
2018-03-23T07:26:11.251Z,981.67
2018-03-23T07:27:11.388Z,981.72
2018-03-23T07:28:11.536Z,981.72
2018-03-23T07:29:11.685Z,981.71
2018-03-23T07:30:11.833Z,981.73
2018-03-23T07:31:11.983Z,981.75
2018-03-23T07:32:12.131Z,981.75
2018-03-23T07:33:12.280Z,981.72
2018-03-23T07:34:12.428Z,981.81
2018-03-23T07:35:12.577Z,981.81
2018-03-23T07:36:12.725Z,981.80
2018-03-23T07:37:12.874Z,981.81
2018-03-23T07:38:13.026Z,981.81
2018-03-23T07:39:13.174Z,981.82
2018-03-23T07:40:13.319Z,981.80
2018-03-23T07:41:13.475Z,981.77
2018-03-23T07:42:13.619Z,981.77
2018-03-23T07:43:13.767Z,981.76
2018-03-23T07:44:13.916Z,981.80
2018-03-23T07:45:14.062Z,981.77
2018-03-23T07:46:14.212Z,981.78
2018-03-23T07:47:14.360Z,981.83
2018-03-23T07:48:14.507Z,981.80
2018-03-23T07:49:14.658Z,981.81
2018-03-23T07:50:14.805Z,981.80
2018-03-23T07:51:14.957Z,981.81
2018-03-23T07:52:15.105Z,981.79
2018-03-23T07:53:15.252Z,981.79
2018-03-23T07:54:15.406Z,981.83
2018-03-23T07:55:15.558Z,981.81
2018-03-23T07:56:15.707Z,981.79
2018-03-23T07:57:15.855Z,981.76
2018-03-23T07:58:16.003Z,981.78
2018-03-23T07:59:16.152Z,981.74
2018-03-23T08:00:16.301Z,981.73
2018-03-23T08:01:16.451Z,981.71
2018-03-23T08:02:16.600Z,981.73
2018-03-23T08:03:16.752Z,981.69
2018-03-23T08:04:16.901Z,981.75
2018-03-23T08:05:17.061Z,981.76
2018-03-23T08:06:17.196Z,981.75
2018-03-23T08:07:17.362Z,981.74
2018-03-23T08:08:17.513Z,981.71
2018-03-23T08:09:17.659Z,981.68
2018-03-23T08:10:17.807Z,981.62
2018-03-23T08:11:17.957Z,981.66
2018-03-23T08:12:18.105Z,981.66
2018-03-23T08:13:18.260Z,981.66
2018-03-23T08:14:18.403Z,981.70
2018-03-23T08:15:18.552Z,981.72
2018-03-23T08:16:18.702Z,981.70
2018-03-23T08:17:18.855Z,981.67
2018-03-23T08:18:19.003Z,981.67
2018-03-23T08:19:19.152Z,981.66
2018-03-23T08:20:19.304Z,981.66
2018-03-23T08:21:19.451Z,981.61
2018-03-23T08:22:19.602Z,981.63
2018-03-23T08:23:19.752Z,981.61
2018-03-23T08:24:19.902Z,981.57
2018-03-23T08:25:20.052Z,981.59
2018-03-23T08:26:20.200Z,981.63
2018-03-23T08:27:20.349Z,981.66
2018-03-23T08:28:20.497Z,981.67
2018-03-23T08:29:20.646Z,981.66
2018-03-23T08:30:20.801Z,981.60
2018-03-23T08:31:20.944Z,981.63
2018-03-23T08:32:21.094Z,981.58
2018-03-23T08:33:21.243Z,981.59
2018-03-23T08:34:21.394Z,981.62
2018-03-23T08:35:21.542Z,981.62
2018-03-23T08:36:21.736Z,981.53
2018-03-23T08:37:21.847Z,981.55
2018-03-23T08:38:21.997Z,981.45
2018-03-23T08:39:22.145Z,981.47
2018-03-23T08:40:22.295Z,981.43
2018-03-23T08:41:22.443Z,981.46
2018-03-23T08:42:22.592Z,981.47
2018-03-23T08:43:22.743Z,981.47
2018-03-23T08:44:22.908Z,981.46
2018-03-23T08:45:23.040Z,981.50
2018-03-23T08:46:23.190Z,981.50
2018-03-23T08:47:23.338Z,981.52
2018-03-23T08:48:23.489Z,981.53
2018-03-23T08:49:23.639Z,981.50
2018-03-23T08:50:23.787Z,981.54
2018-03-23T08:51:23.935Z,981.52
2018-03-23T08:52:24.085Z,981.50
2018-03-23T08:53:24.234Z,981.53
2018-03-23T08:54:24.391Z,981.55
2018-03-23T08:55:24.541Z,981.53
2018-03-23T08:56:24.690Z,981.51
2018-03-23T08:57:24.840Z,981.54
2018-03-23T08:58:24.987Z,981.51
2018-03-23T08:59:25.139Z,981.51
2018-03-23T09:00:25.289Z,981.54
2018-03-23T09:01:25.438Z,981.56
2018-03-23T09:02:25.585Z,981.51
2018-03-23T09:03:25.736Z,981.50
2018-03-23T09:04:25.884Z,981.51
2018-03-23T09:05:26.036Z,981.49
2018-03-23T09:06:26.184Z,981.49
2018-03-23T09:07:26.336Z,981.46
2018-03-23T09:08:26.485Z,981.46
2018-03-23T09:09:26.636Z,981.47
2018-03-23T09:10:26.786Z,981.44
2018-03-23T09:11:26.936Z,981.50
2018-03-23T09:12:27.085Z,981.46
2018-03-23T09:13:27.240Z,981.48
2018-03-23T09:14:27.387Z,981.52
2018-03-23T09:15:27.537Z,981.54
2018-03-23T09:16:27.690Z,981.50
2018-03-23T09:17:27.852Z,981.47
2018-03-23T09:18:27.990Z,981.49
2018-03-23T09:19:28.143Z,981.44
2018-03-23T09:20:28.293Z,981.41
2018-03-23T09:21:28.443Z,981.40
2018-03-23T09:22:28.591Z,981.34
2018-03-23T09:23:28.742Z,981.37
2018-03-23T09:24:28.896Z,981.40
2018-03-23T09:25:29.052Z,981.38
2018-03-23T09:26:29.202Z,981.43
2018-03-23T09:27:29.346Z,981.41
2018-03-23T09:28:29.496Z,981.43
2018-03-23T09:29:29.646Z,981.47
2018-03-23T09:30:29.798Z,981.44
2018-03-23T09:31:29.948Z,981.48
2018-03-23T09:32:30.099Z,981.43
2018-03-23T09:33:30.249Z,981.48
2018-03-23T09:34:30.398Z,981.47
2018-03-23T09:35:30.551Z,981.48
2018-03-23T09:36:30.704Z,981.53
2018-03-23T09:37:30.854Z,981.47
2018-03-23T09:38:31.003Z,981.50
2018-03-23T09:39:31.157Z,981.44
2018-03-23T09:40:31.308Z,981.47
2018-03-23T09:41:31.459Z,981.45
2018-03-23T09:42:31.607Z,981.45
2018-03-23T09:43:31.759Z,981.45
2018-03-23T09:44:31.916Z,981.50
2018-03-23T09:45:32.061Z,981.42
2018-03-23T09:46:32.252Z,981.42
2018-03-23T09:47:32.381Z,981.45
2018-03-23T09:48:32.537Z,981.40
2018-03-23T09:49:32.682Z,981.42
2018-03-23T09:50:32.834Z,981.44
2018-03-23T09:51:32.984Z,981.41
2018-03-23T09:52:33.135Z,981.40
2018-03-23T09:53:33.287Z,981.37
2018-03-23T09:54:33.441Z,981.39
2018-03-23T09:55:33.592Z,981.40
2018-03-23T09:56:33.750Z,981.37
2018-03-23T09:57:33.898Z,981.36
2018-03-23T09:58:34.046Z,981.40
2018-03-23T09:59:34.197Z,981.38
2018-03-23T10:00:34.349Z,981.42
2018-03-23T10:01:34.499Z,981.41
2018-03-23T10:02:34.650Z,981.40
2018-03-23T10:03:34.799Z,981.37
2018-03-23T10:04:34.951Z,981.36
2018-03-23T10:05:35.103Z,981.37
2018-03-23T10:06:35.255Z,981.37
2018-03-23T10:07:35.405Z,981.35
2018-03-23T10:08:35.558Z,981.34
2018-03-23T10:09:35.710Z,981.30
2018-03-23T10:10:35.861Z,981.33
2018-03-23T10:11:36.017Z,981.28
2018-03-23T10:12:36.167Z,981.30
2018-03-23T10:13:36.317Z,981.28
2018-03-23T10:14:36.466Z,981.24
2018-03-23T10:15:36.619Z,981.25
2018-03-23T10:16:36.770Z,981.23
2018-03-23T10:17:36.920Z,981.21
2018-03-23T10:18:37.070Z,981.20
2018-03-23T10:19:37.219Z,981.17
2018-03-23T10:20:37.370Z,981.14
2018-03-23T10:21:37.543Z,981.12
2018-03-23T10:22:37.675Z,981.09
2018-03-23T10:23:37.829Z,981.10
2018-03-23T10:24:37.977Z,981.05
2018-03-23T10:25:38.128Z,981.10
2018-03-23T10:26:38.280Z,981.03
2018-03-23T10:27:38.432Z,981.05
2018-03-23T10:28:38.604Z,981.03
2018-03-23T10:29:38.736Z,981.02
2018-03-23T10:30:38.889Z,981.04
2018-03-23T10:31:39.045Z,981.06
2018-03-23T10:32:39.197Z,981.04
2018-03-23T10:33:39.349Z,981.07
2018-03-23T10:34:39.505Z,981.01
2018-03-23T10:35:39.649Z,981.02
2018-03-23T10:36:39.806Z,980.96
2018-03-23T10:37:39.958Z,980.98
2018-03-23T10:38:40.107Z,980.97
2018-03-23T10:39:40.258Z,980.92
2018-03-23T10:40:40.409Z,980.95
2018-03-23T10:41:40.559Z,980.93
2018-03-23T10:42:40.712Z,980.89
2018-03-23T10:43:40.887Z,980.91
2018-03-23T10:44:41.056Z,980.91
2018-03-23T10:45:41.222Z,980.92
2018-03-23T10:46:41.358Z,980.93
2018-03-23T10:47:41.508Z,980.87
2018-03-23T10:48:41.660Z,980.89
2018-03-23T10:49:41.819Z,980.87
2018-03-23T10:50:41.964Z,980.81
2018-03-23T10:51:42.118Z,980.82
2018-03-23T10:52:42.311Z,980.82
2018-03-23T10:53:42.426Z,980.82
2018-03-23T10:54:42.582Z,980.78
2018-03-23T10:55:42.752Z,980.79
2018-03-23T10:56:42.905Z,980.80
2018-03-23T10:57:43.061Z,980.81
2018-03-23T10:58:43.208Z,980.78
2018-03-23T10:59:43.360Z,980.75
2018-03-23T11:00:43.511Z,980.79
2018-03-23T11:01:43.673Z,980.75
2018-03-23T11:02:43.825Z,980.74
2018-03-23T11:03:43.980Z,980.74
2018-03-23T11:04:44.129Z,980.70
2018-03-23T11:05:44.278Z,980.70
2018-03-23T11:06:44.423Z,980.64
2018-03-23T11:07:44.572Z,980.67
2018-03-23T11:08:44.722Z,980.68
2018-03-23T11:09:44.891Z,980.64
2018-03-23T11:10:45.052Z,980.62
2018-03-23T11:11:45.210Z,980.66
2018-03-23T11:12:45.368Z,980.63
2018-03-23T11:13:45.514Z,980.62
2018-03-23T11:14:45.666Z,980.58
2018-03-23T11:15:45.817Z,980.62
2018-03-23T11:16:45.967Z,980.59
2018-03-23T11:17:46.128Z,980.61
2018-03-23T11:18:46.280Z,980.59
2018-03-23T11:19:46.428Z,980.56
2018-03-23T11:20:46.581Z,980.55
2018-03-23T11:21:46.733Z,980.54
2018-03-23T11:22:46.888Z,980.58
2018-03-23T11:23:47.042Z,980.56
2018-03-23T11:24:47.189Z,980.51
2018-03-23T11:25:47.337Z,980.48
2018-03-23T11:26:47.498Z,980.52
2018-03-23T11:27:47.650Z,980.53
2018-03-23T11:28:47.804Z,980.50
2018-03-23T11:29:47.956Z,980.55
2018-03-23T11:30:48.105Z,980.51
2018-03-23T11:31:48.257Z,980.46
2018-03-23T11:32:48.408Z,980.50
2018-03-23T11:33:48.558Z,980.50
2018-03-23T11:34:48.717Z,980.51
2018-03-23T11:35:48.864Z,980.49
2018-03-23T11:36:49.022Z,980.51
2018-03-23T11:37:49.171Z,980.48
2018-03-23T11:38:49.321Z,980.47
2018-03-23T11:39:49.474Z,980.47
2018-03-23T11:40:49.624Z,980.50
2018-03-23T11:41:49.776Z,980.48
2018-03-23T11:42:49.925Z,980.49
2018-03-23T11:43:50.079Z,980.49
2018-03-23T11:44:50.270Z,980.47
2018-03-23T11:45:50.382Z,980.46
2018-03-23T11:46:50.533Z,980.46
2018-03-23T11:47:50.692Z,980.47
2018-03-23T11:48:50.836Z,980.41
2018-03-23T11:49:50.986Z,980.41
2018-03-23T11:50:51.155Z,980.37
2018-03-23T11:51:51.291Z,980.37
2018-03-23T11:52:51.443Z,980.39
2018-03-23T11:53:51.647Z,980.33
2018-03-23T11:54:51.736Z,980.29
2018-03-23T11:55:51.886Z,980.25
2018-03-23T11:56:52.038Z,980.30
2018-03-23T11:57:52.190Z,980.24
2018-03-23T11:58:52.346Z,980.25
2018-03-23T11:59:52.505Z,980.25
2018-03-23T12:00:52.659Z,980.24
2018-03-23T12:01:52.868Z,980.21
2018-03-23T12:02:52.897Z,980.23
2018-03-23T12:03:53.050Z,980.22
2018-03-23T12:04:53.201Z,980.22
2018-03-23T12:05:53.353Z,980.23
2018-03-23T12:06:53.505Z,980.23
2018-03-23T12:07:53.666Z,980.24
2018-03-23T12:08:53.808Z,980.22
2018-03-23T12:09:53.991Z,980.17
2018-03-23T12:10:54.116Z,980.20
2018-03-23T12:11:54.268Z,980.21
2018-03-23T12:12:54.422Z,980.22
2018-03-23T12:13:54.573Z,980.18
2018-03-23T12:14:54.726Z,980.17
2018-03-23T12:15:54.885Z,980.18
2018-03-23T12:16:55.061Z,980.15
2018-03-23T12:17:55.189Z,980.14
2018-03-23T12:18:55.343Z,980.11
2018-03-23T12:19:55.497Z,980.10
2018-03-23T12:20:55.656Z,980.06
2018-03-23T12:21:55.808Z,980.09
2018-03-23T12:22:55.960Z,980.07
2018-03-23T12:23:56.110Z,980.07
2018-03-23T12:24:56.261Z,980.03
2018-03-23T12:25:56.414Z,980.05
2018-03-23T12:26:56.574Z,980.01
2018-03-23T12:27:56.723Z,980.02
2018-03-23T12:28:56.876Z,979.99
2018-03-23T12:29:57.029Z,979.93